createdAt,value
2018-08-09T00:01:59.219Z,8.20
2018-08-09T00:04:27.556Z,8.70
2018-08-09T00:06:56.112Z,8.00
2018-08-09T00:09:24.480Z,8.53
2018-08-09T00:11:53.026Z,9.07
2018-08-09T00:14:21.408Z,8.40
2018-08-09T00:16:49.803Z,8.37
2018-08-09T00:19:18.181Z,8.10
2018-08-09T00:21:46.583Z,8.87
2018-08-09T00:24:14.971Z,9.23
2018-08-09T00:26:43.432Z,9.10
2018-08-09T00:29:11.902Z,8.60
2018-08-09T00:31:40.301Z,8.43
2018-08-09T00:34:08.718Z,9.67
2018-08-09T00:36:37.087Z,9.50
2018-08-09T00:39:08.142Z,9.70
2018-08-09T00:41:36.624Z,9.37
2018-08-09T00:44:05.027Z,9.20
2018-08-09T00:46:33.338Z,8.00
2018-08-09T00:49:01.741Z,8.97
2018-08-09T00:51:30.067Z,8.73
2018-08-09T00:53:58.412Z,9.37
2018-08-09T00:56:26.938Z,9.10
2018-08-09T00:58:55.747Z,8.60
2018-08-09T01:01:24.174Z,8.47
2018-08-09T01:03:52.558Z,9.10
2018-08-09T01:06:20.939Z,9.33
2018-08-09T01:08:54.605Z,8.83
2018-08-09T01:11:23.122Z,9.47
2018-08-09T01:13:51.504Z,8.50
2018-08-09T01:16:19.854Z,8.87
2018-08-09T01:18:48.190Z,9.60
2018-08-09T01:21:16.550Z,10.50
2018-08-09T01:23:45.058Z,10.10
2018-08-09T01:26:13.389Z,9.47
2018-08-09T01:28:42.083Z,10.23
2018-08-09T01:31:10.593Z,10.50
2018-08-09T01:33:39.215Z,10.30
2018-08-09T01:36:08.009Z,10.40
2018-08-09T01:38:36.365Z,10.57
2018-08-09T01:41:05.595Z,9.90
2018-08-09T01:43:45.383Z,10.50
2018-08-09T01:46:16.039Z,9.23
2018-08-09T01:48:44.685Z,10.90
2018-08-09T01:51:14.282Z,9.90
2018-08-09T01:53:43.979Z,10.17
2018-08-09T01:56:13.793Z,10.03
2018-08-09T01:58:43.482Z,10.77
2018-08-09T02:01:12.620Z,10.30
2018-08-09T02:03:43.441Z,11.03
2018-08-09T02:06:12.396Z,9.80
2018-08-09T02:08:41.619Z,10.43
2018-08-09T02:11:15.615Z,10.73
2018-08-09T02:13:45.057Z,9.97
2018-08-09T02:16:14.851Z,9.73
2018-08-09T02:18:43.486Z,10.53
2018-08-09T02:21:13.032Z,9.93
2018-08-09T02:23:42.312Z,11.07
2018-08-09T02:26:10.738Z,10.80
2018-08-09T02:28:44.193Z,11.10
2018-08-09T02:31:13.174Z,9.87
2018-08-09T02:33:41.955Z,9.83
2018-08-09T02:36:12.182Z,10.87
2018-08-09T02:38:41.096Z,10.70
2018-08-09T02:41:10.555Z,10.30
2018-08-09T02:43:44.757Z,11.63
2018-08-09T02:46:17.962Z,10.83
2018-08-09T02:48:46.967Z,10.57
2018-08-09T02:51:15.695Z,10.90
2018-08-09T02:53:46.535Z,11.40
2018-08-09T02:56:15.967Z,10.70
2018-08-09T02:58:44.985Z,12.73
2018-08-09T03:01:14.732Z,12.73
2018-08-09T03:03:43.593Z,10.37
2018-08-09T03:06:13.122Z,10.70
2018-08-09T03:08:41.696Z,10.43
2018-08-09T03:11:11.620Z,11.03
2018-08-09T03:13:40.206Z,10.77
2018-08-09T03:16:10.186Z,10.43
2018-08-09T03:18:39.874Z,10.20
2018-08-09T03:21:09.051Z,10.83
2018-08-09T03:23:39.148Z,11.87
2018-08-09T03:26:07.781Z,10.93
2018-08-09T03:28:37.256Z,10.03
2018-08-09T03:31:11.290Z,10.10
2018-08-09T03:33:41.068Z,11.30
2018-08-09T03:36:10.678Z,11.60
2018-08-09T03:38:39.953Z,10.90
2018-08-09T03:41:08.870Z,11.20
2018-08-09T03:43:37.900Z,11.17
2018-08-09T03:46:07.201Z,10.77
2018-08-09T03:48:36.193Z,10.70
2018-08-09T03:51:05.032Z,11.93
2018-08-09T03:53:33.855Z,9.60
2018-08-09T03:56:02.573Z,10.33
2018-08-09T03:58:30.922Z,11.87
2018-08-09T04:00:59.278Z,10.27
2018-08-09T04:03:27.815Z,10.70
2018-08-09T04:05:56.198Z,10.70
2018-08-09T04:08:24.537Z,10.43
2018-08-09T04:10:52.915Z,10.90
2018-08-09T04:13:21.245Z,10.67
2018-08-09T04:15:49.594Z,10.97
2018-08-09T04:18:17.959Z,11.57
2018-08-09T04:20:46.294Z,10.30
2018-08-09T04:23:14.675Z,10.20
2018-08-09T04:25:43.057Z,12.57
2018-08-09T04:28:11.447Z,10.73
2018-08-09T04:30:39.795Z,11.67
2018-08-09T04:33:08.140Z,10.23
2018-08-09T04:35:36.547Z,10.10
2018-08-09T04:38:05.160Z,11.17
2018-08-09T04:40:33.462Z,10.10
2018-08-09T04:43:01.890Z,10.30
2018-08-09T04:45:30.309Z,10.60
2018-08-09T04:47:58.695Z,10.77
2018-08-09T04:50:27.019Z,9.93
2018-08-09T04:52:55.366Z,11.30
2018-08-09T04:55:23.716Z,10.97
2018-08-09T04:57:52.126Z,10.63
2018-08-09T05:00:20.504Z,10.90
2018-08-09T05:02:48.944Z,11.40
2018-08-09T05:05:17.335Z,11.33
2018-08-09T05:07:45.732Z,10.57
2018-08-09T05:10:14.107Z,9.80
2018-08-09T05:12:42.819Z,10.43
2018-08-09T05:15:11.976Z,11.27
2018-08-09T05:17:40.368Z,11.70
2018-08-09T05:20:08.783Z,10.07
2018-08-09T05:22:37.144Z,10.83
2018-08-09T05:25:05.991Z,10.00
2018-08-09T05:27:34.316Z,11.30
2018-08-09T05:30:02.706Z,11.37
2018-08-09T05:32:31.143Z,10.00
2018-08-09T05:34:59.479Z,10.77
2018-08-09T05:37:27.878Z,10.10
2018-08-09T05:39:56.222Z,10.63
2018-08-09T05:42:24.574Z,12.00
2018-08-09T05:44:52.937Z,10.70
2018-08-09T05:47:21.265Z,10.93
2018-08-09T05:49:49.622Z,11.37
2018-08-09T05:52:18.008Z,10.83
2018-08-09T05:54:46.374Z,10.77
2018-08-09T05:57:14.699Z,11.20
2018-08-09T05:59:43.079Z,11.17
2018-08-09T06:02:11.381Z,9.93
2018-08-09T06:04:39.755Z,10.50
2018-08-09T06:07:08.150Z,9.70
2018-08-09T06:09:36.581Z,9.73
2018-08-09T06:12:05.063Z,10.67
2018-08-09T06:14:33.470Z,9.70
2018-08-09T06:17:01.920Z,10.70
2018-08-09T06:19:30.313Z,11.57
2018-08-09T06:21:58.680Z,10.60
2018-08-09T06:24:27.034Z,10.50
2018-08-09T06:26:55.451Z,9.97
2018-08-09T06:29:23.776Z,10.30
2018-08-09T06:31:52.190Z,10.07
2018-08-09T06:34:20.535Z,10.70
2018-08-09T06:36:48.870Z,10.00
2018-08-09T06:39:17.217Z,10.97
2018-08-09T06:41:45.660Z,11.07
2018-08-09T06:44:14.010Z,10.50
2018-08-09T06:46:42.378Z,10.20
2018-08-09T06:49:10.708Z,10.53
2018-08-09T06:51:39.061Z,10.30
2018-08-09T06:54:07.410Z,9.90
2018-08-09T06:56:35.789Z,9.47
2018-08-09T06:59:04.178Z,9.30
2018-08-09T07:01:32.548Z,9.63
2018-08-09T07:04:00.924Z,9.87
2018-08-09T07:06:29.273Z,9.20
2018-08-09T07:08:57.628Z,9.50
2018-08-09T07:11:25.937Z,9.07
2018-08-09T07:13:54.443Z,10.10
2018-08-09T07:16:22.820Z,10.20
2018-08-09T07:18:51.190Z,9.33
2018-08-09T07:21:19.542Z,9.73
2018-08-09T07:23:47.921Z,10.37
2018-08-09T07:26:16.339Z,9.63
2018-08-09T07:28:44.678Z,10.03
2018-08-09T07:31:13.101Z,9.37
2018-08-09T07:33:41.454Z,9.90
2018-08-09T07:36:09.790Z,9.60
2018-08-09T07:38:39.194Z,9.83
2018-08-09T07:41:07.644Z,9.53
2018-08-09T07:43:36.005Z,9.50
2018-08-09T07:46:04.410Z,9.97
2018-08-09T07:48:32.907Z,9.70
2018-08-09T07:51:01.135Z,9.60
2018-08-09T07:53:29.550Z,9.70
2018-08-09T07:55:57.910Z,9.60
2018-08-09T07:58:26.652Z,9.10
2018-08-09T08:00:55.103Z,10.03
2018-08-09T08:03:23.442Z,9.57
2018-08-09T08:05:51.883Z,9.30
2018-08-09T08:08:20.330Z,9.40
2018-08-09T08:10:49.009Z,9.13
2018-08-09T08:13:18.941Z,9.00
2018-08-09T08:15:47.297Z,9.10
2018-08-09T08:18:15.704Z,9.70
2018-08-09T08:20:44.133Z,9.43
2018-08-09T08:23:12.651Z,9.80
2018-08-09T08:25:41.005Z,10.10
2018-08-09T08:28:09.456Z,10.43
2018-08-09T08:30:37.890Z,9.63
2018-08-09T08:33:06.213Z,9.67
2018-08-09T08:35:34.598Z,9.07
2018-08-09T08:38:03.066Z,9.40
2018-08-09T08:40:31.485Z,9.83
2018-08-09T08:42:59.885Z,9.50
2018-08-09T08:45:28.301Z,9.63
2018-08-09T08:47:56.722Z,8.67
2018-08-09T08:50:25.140Z,9.50
2018-08-09T08:52:53.496Z,9.23
2018-08-09T08:55:22.027Z,8.80
2018-08-09T08:57:50.423Z,9.40
2018-08-09T09:00:18.810Z,8.50
2018-08-09T09:02:47.172Z,8.27
2018-08-09T09:05:15.693Z,9.97
2018-08-09T09:07:44.066Z,9.50
2018-08-09T09:10:13.727Z,9.37
2018-08-09T09:12:42.178Z,9.97
2018-08-09T09:15:12.716Z,9.50
2018-08-09T09:17:42.070Z,9.80
2018-08-09T09:20:13.258Z,9.57
2018-08-09T09:22:42.287Z,9.77
2018-08-09T09:25:14.806Z,8.70
2018-08-09T09:27:43.200Z,8.97
2018-08-09T09:30:16.130Z,9.00
2018-08-09T09:32:44.938Z,9.33
2018-08-09T09:35:13.385Z,9.33
2018-08-09T09:37:42.223Z,9.67
2018-08-09T09:40:10.851Z,8.73
2018-08-09T09:42:39.718Z,9.60
2018-08-09T09:45:09.265Z,8.40
2018-08-09T09:47:37.685Z,9.37
2018-08-09T09:50:07.225Z,10.63
2018-08-09T09:52:35.739Z,9.20
2018-08-09T09:55:04.662Z,9.00
2018-08-09T09:57:33.030Z,10.63
2018-08-09T10:00:01.408Z,9.27
2018-08-09T10:02:29.765Z,9.67
2018-08-09T10:04:58.138Z,10.30
2018-08-09T10:07:26.491Z,9.47
2018-08-09T10:09:54.856Z,8.80
2018-08-09T10:12:23.214Z,9.43
2018-08-09T10:14:51.561Z,9.77
2018-08-09T10:17:19.949Z,9.10
2018-08-09T10:19:48.419Z,9.73
2018-08-09T10:22:16.839Z,10.13
2018-08-09T10:24:45.195Z,10.80
2018-08-09T10:27:13.548Z,9.70
2018-08-09T10:29:41.913Z,8.80
2018-08-09T10:32:10.281Z,9.23
2018-08-09T10:34:38.613Z,9.30
2018-08-09T10:37:07.145Z,9.13
2018-08-09T10:39:35.617Z,10.03
2018-08-09T10:42:04.630Z,9.37
2018-08-09T10:44:32.950Z,9.40
2018-08-09T10:47:01.294Z,8.47
2018-08-09T10:49:29.639Z,8.07
2018-08-09T10:51:58.010Z,8.90
2018-08-09T10:54:26.310Z,8.97
2018-08-09T10:56:54.750Z,7.50
2018-08-09T10:59:23.217Z,7.90
2018-08-09T11:01:52.205Z,8.90
2018-08-09T11:04:20.554Z,8.90
2018-08-09T11:06:48.961Z,8.70
2018-08-09T11:09:17.309Z,8.80
2018-08-09T11:11:45.718Z,9.87
2018-08-09T11:14:14.065Z,9.07
2018-08-09T11:16:42.399Z,8.17
2018-08-09T11:19:10.744Z,8.67
2018-08-09T11:21:39.106Z,9.17
2018-08-09T11:24:07.473Z,7.90
2018-08-09T11:26:35.810Z,8.90
2018-08-09T11:29:04.294Z,8.63
2018-08-09T11:31:32.693Z,9.50
2018-08-09T11:34:01.107Z,8.87
2018-08-09T11:36:29.410Z,8.60
2018-08-09T11:38:57.750Z,8.60
2018-08-09T11:41:26.889Z,8.00
2018-08-09T11:43:55.292Z,8.63
2018-08-09T11:46:23.679Z,8.43
2018-08-09T11:48:52.459Z,8.17
2018-08-09T11:51:20.854Z,7.90
2018-08-09T11:53:49.225Z,7.83
2018-08-09T11:56:17.674Z,8.27
2018-08-09T11:58:45.954Z,7.50
2018-08-09T12:01:14.343Z,8.60
2018-08-09T12:03:42.661Z,8.10
2018-08-09T12:06:11.065Z,8.80
2018-08-09T12:08:39.503Z,9.10
2018-08-09T12:11:07.844Z,8.50
2018-08-09T12:13:36.220Z,8.17
2018-08-09T12:16:04.700Z,8.03
2018-08-09T12:18:33.116Z,8.23
2018-08-09T12:21:01.532Z,7.33
2018-08-09T12:23:29.945Z,7.80
2018-08-09T12:25:58.459Z,6.77
2018-08-09T12:28:26.829Z,7.67
2018-08-09T12:30:55.415Z,7.33
2018-08-09T12:33:24.055Z,7.37
2018-08-09T12:35:52.525Z,7.67
2018-08-09T12:38:21.018Z,7.63
2018-08-09T12:40:49.404Z,7.33
2018-08-09T12:43:19.188Z,7.60
2018-08-09T12:45:47.615Z,7.97
2018-08-09T12:48:16.270Z,7.83
2018-08-09T12:50:44.679Z,6.93
2018-08-09T12:53:13.067Z,8.17
2018-08-09T12:55:41.601Z,7.10
2018-08-09T12:58:10.048Z,7.27
2018-08-09T13:00:38.460Z,7.30
2018-08-09T13:03:06.849Z,7.30
2018-08-09T13:05:35.269Z,7.73
2018-08-09T13:08:03.778Z,7.70
2018-08-09T13:10:35.982Z,7.70
2018-08-09T13:13:04.358Z,7.80
2018-08-09T13:15:32.807Z,7.30
2018-08-09T13:18:01.191Z,6.83
2018-08-09T13:20:29.583Z,7.97
2018-08-09T13:22:57.972Z,7.67
2018-08-09T13:25:26.384Z,5.30
2018-08-09T13:27:54.845Z,3.50
2018-08-09T13:30:23.271Z,6.67
2018-08-09T13:32:51.639Z,3.33
2018-08-09T13:35:20.091Z,3.17
2018-08-09T13:37:48.615Z,2.80
2018-08-09T13:40:17.073Z,3.17
2018-08-09T13:42:45.498Z,2.50
2018-08-09T13:45:16.133Z,3.50
2018-08-09T13:47:44.531Z,3.00
2018-08-09T13:50:13.263Z,3.60
2018-08-09T13:52:42.286Z,3.07
2018-08-09T13:55:12.425Z,2.77
2018-08-09T13:57:40.925Z,2.63
2018-08-09T14:00:11.202Z,2.87
2018-08-09T14:02:40.248Z,2.70
2018-08-09T14:05:09.403Z,4.00
2018-08-09T14:07:38.507Z,4.00
2018-08-09T14:10:08.001Z,3.30
2018-08-09T14:12:36.441Z,5.20
2018-08-09T14:15:06.658Z,4.00
2018-08-09T14:17:35.705Z,4.03
2018-08-09T14:20:05.564Z,3.87
2018-08-09T14:22:34.015Z,4.10
2018-08-09T14:25:02.458Z,4.33
2018-08-09T14:27:31.338Z,4.77
2018-08-09T14:29:59.777Z,5.00
2018-08-09T14:32:28.336Z,4.10
2018-08-09T14:34:57.495Z,4.87
2018-08-09T14:37:26.032Z,4.20
2018-08-09T14:39:54.445Z,4.27
2018-08-09T14:42:23.023Z,4.10
2018-08-09T14:44:51.335Z,4.47
2018-08-09T14:47:19.746Z,4.20
2018-08-09T14:49:48.197Z,4.20
2018-08-09T14:52:16.592Z,3.67
2018-08-09T14:54:45.039Z,3.33
2018-08-09T14:57:13.499Z,3.90
2018-08-09T14:59:41.920Z,3.53
2018-08-09T15:02:10.394Z,4.33
2018-08-09T15:04:38.780Z,4.03
2018-08-09T15:07:07.161Z,3.70
2018-08-09T15:09:35.598Z,3.63
2018-08-09T15:12:04.113Z,3.90
2018-08-09T15:14:32.592Z,3.67
2018-08-09T15:17:00.976Z,3.50
2018-08-09T15:19:29.577Z,3.33
2018-08-09T15:21:58.022Z,4.20
2018-08-09T15:24:26.476Z,3.77
2018-08-09T15:26:55.017Z,3.33
2018-08-09T15:29:23.426Z,3.60
2018-08-09T15:31:52.153Z,4.20
2018-08-09T15:34:20.533Z,2.83
2018-08-09T15:36:48.968Z,2.90
2018-08-09T15:39:17.427Z,3.10
2018-08-09T15:41:45.824Z,2.63
2018-08-09T15:44:14.378Z,3.20
2018-08-09T15:46:42.844Z,3.43
2018-08-09T15:49:11.228Z,3.30
2018-08-09T15:51:39.758Z,3.90
2018-08-09T15:54:08.252Z,3.23
2018-08-09T15:56:36.747Z,24.97
2018-08-09T15:59:05.241Z,3.00
2018-08-09T16:01:33.632Z,3.90
2018-08-09T16:04:02.039Z,3.20
2018-08-09T16:06:30.437Z,3.30
2018-08-09T16:08:58.963Z,3.43
2018-08-09T16:11:27.751Z,2.80
2018-08-09T16:13:56.126Z,3.33
2018-08-09T16:16:24.583Z,2.53
2018-08-09T16:18:52.967Z,2.70
2018-08-09T16:21:21.370Z,2.60
2018-08-09T16:23:49.845Z,3.73
2018-08-09T16:26:18.395Z,2.40
2018-08-09T16:28:46.848Z,2.40
2018-08-09T16:31:15.298Z,2.80
2018-08-09T16:33:43.820Z,2.40
2018-08-09T16:36:12.253Z,2.40
2018-08-09T16:38:40.647Z,2.53
2018-08-09T16:41:09.601Z,2.43
2018-08-09T16:43:38.408Z,2.57
2018-08-09T16:46:06.888Z,2.40
2018-08-09T16:48:35.337Z,2.80
2018-08-09T16:51:03.933Z,2.80
2018-08-09T16:53:32.339Z,3.30
2018-08-09T16:56:00.775Z,3.03
2018-08-09T16:58:29.243Z,3.00
2018-08-09T17:00:57.707Z,2.83
2018-08-09T17:03:26.273Z,2.70
2018-08-09T17:05:54.650Z,2.30
2018-08-09T17:08:23.097Z,3.10
2018-08-09T17:10:51.610Z,2.90
2018-08-09T17:13:19.997Z,2.77
2018-08-09T17:15:48.466Z,3.10
2018-08-09T17:18:16.866Z,3.50
2018-08-09T17:20:45.354Z,3.10
2018-08-09T17:23:13.793Z,3.13
2018-08-09T17:25:42.176Z,3.43
2018-08-09T17:28:10.556Z,2.60
2018-08-09T17:30:39.025Z,3.13
2018-08-09T17:33:07.595Z,2.77
2018-08-09T17:35:36.100Z,3.10
2018-08-09T17:38:04.606Z,2.97
2018-08-09T17:40:34.170Z,3.40
2018-08-09T17:43:03.533Z,3.57
2018-08-09T17:45:33.206Z,3.23
2018-08-09T17:48:02.150Z,2.67
2018-08-09T17:50:30.550Z,2.77
2018-08-09T17:53:00.611Z,2.80
2018-08-09T17:55:29.292Z,2.50
2018-08-09T17:57:57.885Z,3.23
2018-08-09T18:00:27.832Z,3.13
2018-08-09T18:02:56.313Z,3.00
2018-08-09T18:05:24.918Z,2.67
2018-08-09T18:07:53.700Z,3.37
2018-08-09T18:10:25.359Z,2.40
2018-08-09T18:12:54.063Z,2.60
2018-08-09T18:15:23.697Z,2.33
2018-08-09T18:17:52.405Z,2.37
2018-08-09T18:20:22.487Z,2.60
2018-08-09T18:22:50.956Z,2.73
2018-08-09T18:25:19.387Z,2.23
2018-08-09T18:27:47.796Z,2.40
2018-08-09T18:30:17.736Z,2.60
2018-08-09T18:32:46.407Z,3.27
2018-08-09T18:35:16.110Z,2.47
2018-08-09T18:37:44.602Z,2.43
2018-08-09T18:40:15.780Z,2.27
2018-08-09T18:42:44.166Z,2.03
2018-08-09T18:45:12.629Z,2.87
2018-08-09T18:47:41.468Z,3.03
2018-08-09T18:50:13.019Z,2.67
2018-08-09T18:52:41.791Z,2.40
2018-08-09T18:55:10.974Z,2.07
2018-08-09T18:57:39.776Z,2.67
2018-08-09T19:00:14.652Z,2.27
2018-08-09T19:02:43.512Z,2.60
2018-08-09T19:05:11.941Z,2.37
2018-08-09T19:07:40.427Z,2.40
2018-08-09T19:10:11.295Z,2.40
2018-08-09T19:12:39.695Z,2.30
2018-08-09T19:15:09.356Z,2.23
2018-08-09T19:17:38.066Z,2.20
2018-08-09T19:20:08.797Z,2.50
2018-08-09T19:22:37.253Z,2.60
2018-08-09T19:25:06.362Z,2.57
2018-08-09T19:27:34.794Z,2.60
2018-08-09T19:30:04.075Z,2.37
2018-08-09T19:32:32.600Z,2.80
2018-08-09T19:35:01.292Z,2.70
2018-08-09T19:37:29.766Z,2.77
2018-08-09T19:39:58.159Z,2.43
2018-08-09T19:42:26.611Z,2.60
2018-08-09T19:44:55.005Z,2.20
2018-08-09T19:47:23.439Z,2.80
2018-08-09T19:49:51.820Z,2.83
2018-08-09T19:52:20.236Z,2.60
2018-08-09T19:54:48.719Z,2.40
2018-08-09T19:57:17.114Z,2.53
2018-08-09T19:59:45.646Z,2.27
2018-08-09T20:02:14.054Z,2.60
2018-08-09T20:04:42.523Z,2.57
2018-08-09T20:07:11.166Z,1.97
2018-08-09T20:09:39.583Z,2.63
2018-08-09T20:12:08.042Z,2.37
2018-08-09T20:14:36.382Z,3.27
2018-08-09T20:17:04.825Z,3.00
2018-08-09T20:19:33.350Z,2.20
2018-08-09T20:22:01.892Z,1.83
2018-08-09T20:24:30.362Z,2.83
2018-08-09T20:26:58.866Z,2.17
2018-08-09T20:29:27.249Z,2.50
2018-08-09T20:31:55.614Z,2.30
2018-08-09T20:34:23.999Z,2.17
2018-08-09T20:36:52.498Z,2.07
2018-08-09T20:39:20.887Z,2.10
2018-08-09T20:41:49.398Z,2.13
2018-08-09T20:44:17.790Z,2.20
2018-08-09T20:46:46.195Z,1.80
2018-08-09T20:49:14.653Z,2.03
2018-08-09T20:51:43.088Z,1.83
2018-08-09T20:54:11.522Z,1.90
2018-08-09T20:56:39.997Z,1.90
2018-08-09T20:59:08.430Z,2.20
2018-08-09T21:01:36.827Z,1.97
2018-08-09T21:04:05.653Z,1.50
2018-08-09T21:06:34.057Z,1.50
2018-08-09T21:09:02.470Z,1.80
2018-08-09T21:11:30.871Z,2.07
2018-08-09T21:13:59.330Z,1.90
2018-08-09T21:16:27.748Z,1.50
2018-08-09T21:18:56.150Z,1.60
2018-08-09T21:21:24.549Z,1.37
2018-08-09T21:23:52.997Z,1.77
2018-08-09T21:26:21.435Z,1.70
2018-08-09T21:28:49.846Z,1.70
2018-08-09T21:31:18.203Z,1.80
2018-08-09T21:33:46.664Z,1.60
2018-08-09T21:36:21.800Z,1.57
2018-08-09T21:38:50.263Z,1.63
2018-08-09T21:41:18.910Z,1.70
2018-08-09T21:43:47.384Z,1.20
2018-08-09T21:46:15.791Z,1.50
2018-08-09T21:48:44.190Z,1.53
2018-08-09T21:51:12.553Z,1.70
2018-08-09T21:53:40.925Z,1.73
2018-08-09T21:56:09.340Z,1.40
2018-08-09T21:58:37.762Z,1.60
2018-08-09T22:01:07.343Z,1.47
2018-08-09T22:03:37.838Z,1.63
2018-08-09T22:06:11.571Z,1.50
2018-08-09T22:08:45.272Z,2.03
2018-08-09T22:11:19.037Z,1.93
2018-08-09T22:13:52.838Z,1.37
2018-08-09T22:16:26.554Z,1.60
2018-08-09T22:19:00.236Z,1.60
2018-08-09T22:21:33.830Z,1.60
2018-08-09T22:24:02.170Z,1.50
2018-08-09T22:26:30.562Z,1.77
2018-08-09T22:28:58.980Z,1.53
2018-08-09T22:31:27.403Z,1.27
2018-08-09T22:33:55.812Z,1.20
2018-08-09T22:36:24.210Z,1.20
2018-08-09T22:38:52.564Z,1.47
2018-08-09T22:41:20.969Z,1.30
2018-08-09T22:43:49.364Z,1.63
2018-08-09T22:46:17.773Z,1.47
2018-08-09T22:48:46.156Z,1.40
2018-08-09T22:51:14.577Z,1.90
2018-08-09T22:53:43.003Z,1.53
2018-08-09T22:56:11.334Z,1.57
2018-08-09T22:58:39.728Z,1.37
2018-08-09T23:01:14.754Z,1.97
2018-08-09T23:03:43.175Z,1.33
2018-08-09T23:06:11.566Z,1.40
2018-08-09T23:09:18.990Z,1.20
2018-08-09T23:11:47.443Z,1.57
2018-08-09T23:14:15.929Z,1.33
2018-08-09T23:16:44.294Z,1.20
2018-08-09T23:19:12.686Z,1.07
2018-08-09T23:21:41.066Z,1.80
2018-08-09T23:24:09.534Z,1.20
2018-08-09T23:26:37.883Z,1.33
2018-08-09T23:29:06.363Z,1.40
2018-08-09T23:31:34.730Z,1.20
2018-08-09T23:34:03.169Z,1.03
2018-08-09T23:36:31.511Z,1.07
2018-08-09T23:39:00.021Z,1.20
2018-08-09T23:41:28.388Z,1.50
2018-08-09T23:43:58.046Z,0.80
2018-08-09T23:46:27.124Z,1.03
2018-08-09T23:48:55.459Z,1.20
2018-08-09T23:51:23.798Z,1.07
2018-08-09T23:53:52.205Z,1.00
2018-08-09T23:56:20.597Z,1.43
2018-08-09T23:58:48.935Z,1.10
